Time;durP1;ratioP1;P1;durP2;ratioP2;P2;SDS_P1;SDS_P2;PMS_P1;PMS_P2;Temp;Humidity;BMP_temperature;BMP_pressure;BME280_temperature;BME280_humidity;BME280_pressure;Samples;Min_cycle;Max_cycle;Signal;HPM_P1;HPM_P2
2021/05/29 00:02:15;;;;;;;9.87;9.10;;;10.30;99.90;;;;;;5051249;28;20159;-67
2021/05/29 00:04:41;;;;;;;12.30;11.07;;;10.20;99.90;;;;;;5066822;28;20174;-67
2021/05/29 00:07:07;;;;;;;12.73;11.63;;;10.20;99.90;;;;;;5075498;28;20180;-67
2021/05/29 00:09:33;;;;;;;11.40;9.93;;;10.20;99.90;;;;;;5061223;28;20545;-67
2021/05/29 00:11:59;;;;;;;11.17;10.27;;;10.20;99.90;;;;;;5055121;28;20178;-67
2021/05/29 00:14:25;;;;;;;10.93;10.13;;;10.10;99.90;;;;;;5067078;28;20220;-67
2021/05/29 00:16:50;;;;;;;9.93;9.13;;;10.10;99.90;;;;;;5075058;28;20537;-67
2021/05/29 00:19:16;;;;;;;10.50;9.63;;;10.00;99.90;;;;;;5064632;28;20178;-67
2021/05/29 00:21:42;;;;;;;9.87;9.10;;;10.00;99.90;;;;;;5054769;28;20189;-67
2021/05/29 00:24:08;;;;;;;10.80;9.90;;;9.90;99.90;;;;;;5063787;28;20270;-67
2021/05/29 00:26:34;;;;;;;9.87;9.17;;;9.90;99.90;;;;;;5074914;28;20181;-67
2021/05/29 00:28:59;;;;;;;10.47;9.43;;;9.90;99.90;;;;;;5067664;28;20551;-67
2021/05/29 00:31:25;;;;;;;10.17;9.37;;;9.90;99.90;;;;;;5054700;28;20179;-67
2021/05/29 00:33:51;;;;;;;10.33;9.43;;;9.80;99.90;;;;;;5060151;28;20679;-67
2021/05/29 00:36:16;;;;;;;10.40;9.50;;;9.70;99.90;;;;;;5071711;28;20691;-67
2021/05/29 00:38:47;;;;;;;12.63;10.17;;;9.70;99.90;;;;;;5070857;28;20171;-67
2021/05/29 00:41:13;;;;;;;11.23;10.07;;;9.70;99.90;;;;;;5053205;28;20540;-67
2021/05/29 00:43:39;;;;;;;10.10;9.20;;;9.70;99.90;;;;;;5056898;28;20290;-67
2021/05/29 00:46:05;;;;;;;9.77;8.93;;;9.70;99.90;;;;;;5074736;28;20269;-67
2021/05/29 00:48:31;;;;;;;10.20;9.50;;;9.60;99.90;;;;;;5073475;28;20243;-67
2021/05/29 00:50:59;;;;;;;11.03;10.20;;;9.60;99.90;;;;;;5054194;28;20189;-67
2021/05/29 00:53:30;;;;;;;10.67;9.87;;;9.50;99.90;;;;;;5054486;28;20206;-67
2021/05/29 00:55:58;;;;;;;10.37;9.57;;;9.50;99.90;;;;;;5074521;28;20643;-67
2021/05/29 00:58:26;;;;;;;10.73;9.90;;;9.50;99.90;;;;;;5073100;28;20172;-67
2021/05/29 01:00:52;;;;;;;10.47;9.60;;;9.50;99.90;;;;;;5054436;28;20236;-67
2021/05/29 01:03:19;;;;;;;11.53;10.33;;;9.50;99.90;;;;;;5054359;28;20203;-67
2021/05/29 01:05:45;;;;;;;14.43;10.80;;;9.40;99.90;;;;;;5070967;28;20188;-67
2021/05/29 01:08:11;;;;;;;12.23;11.23;;;9.30;99.90;;;;;;5074289;28;20265;-67
2021/05/29 01:10:38;;;;;;;11.43;10.33;;;9.30;99.90;;;;;;5056928;28;20252;-67
2021/05/29 01:13:06;;;;;;;11.80;10.80;;;9.20;99.90;;;;;;5054029;28;20210;-67
2021/05/29 01:15:39;;;;;;;11.17;10.20;;;9.20;99.90;;;;;;5068562;28;20214;-67
2021/05/29 01:18:06;;;;;;;12.13;10.93;;;9.20;99.90;;;;;;5072925;28;20178;-67
2021/05/29 01:20:33;;;;;;;11.97;10.93;;;9.20;99.90;;;;;;5058890;28;20245;-67
2021/05/29 01:22:59;;;;;;;11.33;10.43;;;9.20;99.90;;;;;;5053701;28;20218;-67
2021/05/29 01:25:29;;;;;;;11.37;10.30;;;9.20;99.90;;;;;;5065017;28;20226;-67
2021/05/29 01:28:01;;;;;;;12.37;11.17;;;9.20;99.90;;;;;;5073887;28;20179;-67
2021/05/29 01:30:28;;;;;;;11.63;10.63;;;9.20;99.90;;;;;;5060904;28;20244;-67
2021/05/29 01:32:57;;;;;;;11.43;10.47;;;9.20;99.90;;;;;;5053557;28;20206;-67
2021/05/29 01:35:22;;;;;;;13.73;11.03;;;9.10;99.90;;;;;;5065058;28;20174;-67
2021/05/29 01:37:48;;;;;;;11.00;10.10;;;9.10;99.90;;;;;;5073102;28;20182;-67
2021/05/29 01:40:14;;;;;;;12.00;10.90;;;9.10;99.90;;;;;;5063709;28;20179;-67
2021/05/29 01:42:40;;;;;;;11.30;10.33;;;9.00;99.90;;;;;;5053440;28;20198;-67
2021/05/29 01:45:08;;;;;;;12.40;11.50;;;8.90;99.90;;;;;;5061211;28;20714;-67
2021/05/29 01:47:37;;;;;;;12.87;11.93;;;8.70;99.90;;;;;;5073657;28;20519;-67
2021/05/29 01:50:05;;;;;;;11.80;10.77;;;8.70;99.90;;;;;;5066545;28;20212;-67
2021/05/29 01:52:54;;;;;;;12.00;10.80;;;8.80;99.90;;;;;;5054653;28;20234;-67
2021/05/29 01:55:22;;;;;;;12.93;11.83;;;8.80;99.90;;;;;;5073315;28;20251;-67
2021/05/29 01:57:49;;;;;;;12.77;11.80;;;8.80;99.90;;;;;;5073568;28;20170;-67
2021/05/29 02:00:16;;;;;;;12.87;11.90;;;8.70;99.90;;;;;;5054284;28;20656;-67
2021/05/29 02:02:42;;;;;;;12.70;11.63;;;8.60;99.90;;;;;;5053045;28;20201;-67
2021/05/29 02:05:17;;;;;;;12.97;11.93;;;8.50;99.90;;;;;;5069988;28;20186;-67
2021/05/29 02:07:44;;;;;;;12.97;11.87;;;8.40;99.90;;;;;;5073148;28;20600;-67
2021/05/29 02:10:15;;;;;;;14.03;12.53;;;8.30;99.90;;;;;;5056161;28;20191;-67
2021/05/29 02:12:46;;;;;;;12.97;11.80;;;8.30;99.90;;;;;;5069149;28;20209;-67
2021/05/29 02:15:15;;;;;;;13.50;12.20;;;8.30;99.90;;;;;;5073033;28;20640;-67
2021/05/29 02:17:43;;;;;;;13.50;12.20;;;8.30;99.90;;;;;;5057287;28;20183;-67
2021/05/29 02:20:09;;;;;;;13.47;12.27;;;8.20;99.90;;;;;;5052973;28;20170;-67
2021/05/29 02:22:35;;;;;;;13.37;12.17;;;8.20;99.90;;;;;;5066400;28;20247;-67
2021/05/29 02:25:01;;;;;;;14.10;12.83;;;8.20;99.90;;;;;;5072965;28;20689;-67
2021/05/29 02:27:27;;;;;;;19.60;18.00;;;8.20;99.90;;;;;;5059923;28;20224;-67
2021/05/29 02:29:52;;;;;;;25.47;23.63;;;8.20;99.90;;;;;;5052426;28;20544;-66
2021/05/29 02:32:18;;;;;;;19.63;18.23;;;8.20;99.90;;;;;;5053637;28;20190;-67
2021/05/29 02:34:44;;;;;;;16.07;14.70;;;8.20;99.90;;;;;;5052463;28;20216;-67
2021/05/29 02:37:09;;;;;;;16.03;14.37;;;8.20;99.90;;;;;;5060944;28;20476;-67
2021/05/29 02:39:35;;;;;;;15.37;14.17;;;8.20;99.90;;;;;;5072508;28;20261;-67
2021/05/29 02:42:01;;;;;;;22.00;20.33;;;8.30;99.90;;;;;;5065631;28;20190;-67
2021/05/29 02:44:27;;;;;;;22.57;21.03;;;8.30;99.90;;;;;;5051612;28;20198;-67
2021/05/29 02:46:53;;;;;;;16.17;14.33;;;8.40;99.90;;;;;;5056701;28;20186;-67
2021/05/29 02:49:19;;;;;;;13.63;12.23;;;8.40;99.90;;;;;;5072433;28;20677;-67
2021/05/29 02:51:44;;;;;;;14.40;12.90;;;8.20;99.90;;;;;;5068857;28;20256;-67
2021/05/29 02:54:10;;;;;;;16.93;15.37;;;8.10;99.90;;;;;;5052302;28;20232;-67
2021/05/29 02:56:36;;;;;;;15.63;14.23;;;8.10;99.90;;;;;;5052966;28;20559;-67
2021/05/29 02:59:01;;;;;;;14.27;12.97;;;8.10;99.90;;;;;;5072275;28;20174;-67
2021/05/29 03:01:27;;;;;;;16.37;14.93;;;8.00;99.90;;;;;;5071881;28;20181;-67
2021/05/29 03:03:53;;;;;;;15.47;14.27;;;8.10;99.90;;;;;;5052595;28;20211;-67
2021/05/29 03:06:18;;;;;;;14.40;13.17;;;8.10;99.90;;;;;;5052259;28;20206;-67
2021/05/29 03:08:44;;;;;;;14.27;13.13;;;8.10;99.90;;;;;;5068845;28;20182;-67
2021/05/29 03:11:11;;;;;;;21.60;19.90;;;8.10;99.90;;;;;;5071695;28;20178;-67
2021/05/29 03:13:37;;;;;;;17.90;16.60;;;8.00;99.90;;;;;;5055953;28;20568;-67
2021/05/29 03:16:03;;;;;;;15.13;13.83;;;8.00;99.90;;;;;;5052188;28;20254;-67
2021/05/29 03:18:29;;;;;;;16.40;14.67;;;8.00;99.90;;;;;;5065483;28;20269;-67
2021/05/29 03:20:55;;;;;;;15.73;14.43;;;8.00;99.90;;;;;;5071392;28;20170;-67
2021/05/29 03:23:23;;;;;;;16.57;15.17;;;8.00;99.90;;;;;;5059545;28;20214;-67
2021/05/29 03:25:49;;;;;;;16.33;15.03;;;8.00;99.90;;;;;;5051860;28;20221;-67
2021/05/29 03:28:14;;;;;;;17.23;15.70;;;7.90;99.90;;;;;;5062001;28;20620;-67
2021/05/29 03:30:41;;;;;;;16.30;14.60;;;7.90;99.90;;;;;;5071291;28;20178;-67
2021/05/29 03:33:07;;;;;;;15.93;14.50;;;7.90;99.90;;;;;;5062648;28;20217;-67
2021/05/29 03:35:33;;;;;;;16.37;15.03;;;7.90;99.90;;;;;;5051644;28;20174;-67
2021/05/29 03:37:58;;;;;;;17.63;16.03;;;7.90;99.90;;;;;;5058412;28;20239;-67
2021/05/29 03:40:24;;;;;;;16.50;15.00;;;7.90;99.90;;;;;;5070448;28;20518;-67
2021/05/29 03:42:50;;;;;;;19.70;14.97;;;8.00;99.90;;;;;;5066026;28;20202;-67
2021/05/29 03:45:19;;;;;;;16.87;15.47;;;8.00;99.90;;;;;;5051030;28;20541;-67
2021/05/29 03:47:46;;;;;;;17.97;16.07;;;7.90;99.90;;;;;;5054811;28;20181;-67
2021/05/29 03:50:14;;;;;;;18.97;17.37;;;7.90;99.90;;;;;;5071310;28;20220;-67
2021/05/29 03:52:41;;;;;;;17.33;15.07;;;7.90;99.90;;;;;;5061882;28;20242;-67
2021/05/29 03:55:08;;;;;;;17.83;15.90;;;8.00;99.90;;;;;;5051510;28;20253;-67
2021/05/29 03:57:33;;;;;;;16.90;15.43;;;8.20;99.90;;;;;;5058773;28;20647;-67
2021/05/29 03:59:59;;;;;;;17.53;15.93;;;8.30;99.90;;;;;;5071232;28;20190;-67
2021/05/29 04:02:25;;;;;;;16.87;15.30;;;8.40;99.90;;;;;;5065423;28;20182;-67
2021/05/29 04:04:50;;;;;;;16.33;15.03;;;8.50;99.90;;;;;;5051181;28;20170;-67
2021/05/29 04:07:16;;;;;;;15.00;13.70;;;8.70;99.90;;;;;;5054980;28;20643;-67
2021/05/29 04:09:42;;;;;;;15.30;13.87;;;8.90;99.90;;;;;;5070959;28;20186;-67
2021/05/29 04:12:08;;;;;;;15.20;13.90;;;9.10;99.90;;;;;;5069101;28;20178;-67
2021/05/29 04:14:34;;;;;;;14.93;13.37;;;9.10;99.90;;;;;;5061703;28;20199;-67
2021/05/29 04:17:01;;;;;;;14.20;13.00;;;9.30;99.90;;;;;;5051121;28;20171;-67
2021/05/29 04:19:27;;;;;;;14.00;12.73;;;9.60;99.90;;;;;;5071235;28;20628;-67
2021/05/29 04:21:52;;;;;;;15.03;13.87;;;9.90;99.90;;;;;;5070829;28;20185;-67
2021/05/29 04:24:18;;;;;;;13.00;11.80;;;10.20;99.90;;;;;;5052737;28;20268;-67
2021/05/29 04:26:44;;;;;;;12.90;11.77;;;10.50;99.90;;;;;;5050988;28;20175;-67
2021/05/29 04:29:09;;;;;;;13.07;11.97;;;10.70;99.90;;;;;;5067671;28;20186;-67
2021/05/29 04:31:35;;;;;;;11.40;10.37;;;10.90;99.90;;;;;;5071053;28;20586;-67
2021/05/29 04:34:01;;;;;;;12.43;11.23;;;11.00;99.90;;;;;;5055831;28;20214;-65
2021/05/29 04:36:26;;;;;;;11.83;10.83;;;11.30;99.90;;;;;;5051284;28;20224;-67
2021/05/29 04:38:52;;;;;;;10.60;9.80;;;11.50;99.90;;;;;;5063394;28;20249;-67
2021/05/29 04:41:20;;;;;;;10.77;9.87;;;11.50;99.90;;;;;;5070993;28;20381;-66
2021/05/29 04:43:46;;;;;;;10.97;9.87;;;11.70;99.90;;;;;;5059192;28;20202;-67
2021/05/29 04:46:11;;;;;;;11.60;10.47;;;11.80;99.90;;;;;;5050153;28;20182;-66
2021/05/29 04:48:37;;;;;;;11.53;10.50;;;12.10;99.90;;;;;;5060078;28;20182;-67
2021/05/29 04:51:12;;;;;;;12.97;10.77;;;12.30;99.90;;;;;;5071645;28;20627;-67
2021/05/29 04:53:40;;;;;;;11.13;10.23;;;12.60;99.90;;;;;;5065209;28;20228;-67
2021/05/29 04:56:06;;;;;;;10.63;9.83;;;12.90;99.90;;;;;;5054621;28;20535;-67
2021/05/29 04:58:32;;;;;;;11.40;10.43;;;13.20;99.90;;;;;;5061947;28;20212;-66
2021/05/29 05:00:57;;;;;;;11.20;10.10;;;13.60;99.90;;;;;;5073965;28;20604;-66
2021/05/29 05:03:23;;;;;;;11.00;10.20;;;13.90;99.90;;;;;;5068827;28;20206;-67
2021/05/29 05:05:49;;;;;;;10.83;9.93;;;14.20;99.90;;;;;;5054326;28;20189;-67
2021/05/29 05:08:14;;;;;;;10.93;9.93;;;14.60;99.90;;;;;;5056461;28;20654;-67
2021/05/29 05:10:41;;;;;;;11.50;10.60;;;14.70;99.90;;;;;;5073936;28;20185;-67
2021/05/29 05:13:06;;;;;;;11.23;10.30;;;14.80;99.90;;;;;;5072012;28;20307;-67
2021/05/29 05:15:32;;;;;;;14.27;9.77;;;15.10;99.90;;;;;;5054230;28;20251;-65
2021/05/29 05:17:58;;;;;;;10.93;10.13;;;15.20;99.90;;;;;;5054095;28;20175;-67
2021/05/29 05:20:24;;;;;;;10.57;9.70;;;15.50;99.90;;;;;;5073660;28;20549;-67
2021/05/29 05:22:49;;;;;;;11.53;10.33;;;15.60;99.90;;;;;;5073632;28;20214;-67
2021/05/29 05:25:17;;;;;;;10.10;9.30;;;15.50;99.90;;;;;;5055721;28;20183;-67
2021/05/29 05:27:43;;;;;;;12.37;11.37;;;15.70;99.90;;;;;;5053942;28;20179;-67
2021/05/29 05:30:11;;;;;;;10.53;9.53;;;15.90;99.90;;;;;;5069983;28;20188;-66
2021/05/29 05:32:38;;;;;;;11.90;10.73;;;16.00;99.90;;;;;;5073892;28;20281;-67
2021/05/29 05:35:08;;;;;;;11.63;10.53;;;16.00;99.90;;;;;;5058308;28;20220;-66
2021/05/29 05:37:34;;;;;;;12.00;10.70;;;16.00;99.90;;;;;;5053850;28;20652;-65
2021/05/29 05:40:00;;;;;;;12.17;11.17;;;16.20;99.90;;;;;;5067199;28;20189;-66
2021/05/29 05:42:26;;;;;;;11.50;10.70;;;16.20;99.90;;;;;;5073623;28;20163;-65
2021/05/29 05:44:51;;;;;;;13.00;12.00;;;16.30;99.90;;;;;;5071612;28;20579;-66
2021/05/29 05:47:18;;;;;;;14.37;13.20;;;16.30;99.90;;;;;;5073667;28;20168;-67
2021/05/29 05:49:44;;;;;;;11.67;10.57;;;16.40;99.90;;;;;;5062639;28;20770;-69
2021/05/29 05:52:10;;;;;;;10.33;9.63;;;16.60;99.90;;;;;;5058736;28;20256;-66
2021/05/29 05:54:36;;;;;;;9.80;8.90;;;16.90;99.90;;;;;;5073362;28;20210;-65
2021/05/29 05:57:01;;;;;;;10.40;9.50;;;17.10;99.90;;;;;;5067889;28;20179;-65
2021/05/29 05:59:27;;;;;;;11.47;10.37;;;17.40;99.90;;;;;;5053383;28;20204;-67
2021/05/29 06:01:53;;;;;;;11.27;10.37;;;17.50;99.90;;;;;;5054393;28;20203;-68
2021/05/29 06:04:18;;;;;;;10.97;9.97;;;17.40;99.90;;;;;;5072727;28;20208;-64
2021/05/29 06:06:44;;;;;;;11.40;10.47;;;17.50;99.90;;;;;;5073115;28;20170;-65
2021/05/29 06:09:09;;;;;;;12.67;10.63;;;17.80;99.90;;;;;;5051739;28;20529;-65
2021/05/29 06:11:35;;;;;;;14.47;13.00;;;18.00;99.90;;;;;;5052926;28;20249;-65
2021/05/29 06:19:14;;;;;;;12.23;11.33;;;18.90;99.90;;;;;;5072162;28;20181;-66
2021/05/29 06:21:47;;;;;;;12.68;11.75;;;19.10;99.90;;;;;;5072383;28;20247;-65
2021/05/29 06:24:25;;;;;;;12.60;11.70;;;18.90;99.90;;;;;;5053684;28;20572;-65
2021/05/29 06:26:51;;;;;;;11.77;10.97;;;18.60;99.90;;;;;;5052525;28;20185;-66
2021/05/29 06:29:18;;;;;;;15.10;14.07;;;18.90;99.90;;;;;;5071303;28;20190;-66
2021/05/29 06:31:45;;;;;;;13.70;12.43;;;19.40;99.90;;;;;;5072299;28;20719;-65
2021/05/29 06:34:11;;;;;;;14.00;12.90;;;19.60;99.90;;;;;;5070782;28;20248;-66
2021/05/29 06:36:36;;;;;;;13.23;11.98;;;19.80;99.90;;;;;;5072606;28;20198;-66
2021/05/29 06:39:04;;;;;;;16.13;15.02;;;20.00;99.90;;;;;;5070664;28;20240;-65
2021/05/29 06:41:29;;;;;;;10.63;9.70;;;20.30;99.90;;;;;;5072169;28;20170;-66
2021/05/29 06:43:55;;;;;;;10.45;9.55;;;20.50;99.90;;;;;;5057671;28;20209;-66
2021/05/29 06:46:20;;;;;;;10.50;9.65;;;21.00;99.90;;;;;;5051891;28;20198;-66
2021/05/29 06:48:46;;;;;;;10.38;9.57;;;21.40;99.90;;;;;;5064403;28;20189;-66
2021/05/29 06:51:16;;;;;;;9.35;8.55;;;21.90;99.90;;;;;;5071715;28;20170;-65
2021/05/29 06:53:46;;;;;;;9.75;8.95;;;22.20;99.90;;;;;;5060660;28;20215;-65
2021/05/29 06:58:56;;;;;;;10.45;9.57;;;22.00;99.90;;;;;;5063726;28;20193;-66
2021/05/29 07:01:24;;;;;;;7.88;7.38;;;22.50;99.90;;;;;;5071795;28;20167;-66
2021/05/29 07:03:51;;;;;;;7.78;7.18;;;22.60;99.90;;;;;;5060554;28;20198;-65
2021/05/29 07:06:17;;;;;;;8.52;7.70;;;22.40;99.90;;;;;;5052045;28;20194;-66
2021/05/29 07:08:43;;;;;;;10.07;8.02;;;22.60;99.90;;;;;;5061447;28;20282;-65
2021/05/29 07:11:09;;;;;;;10.85;9.00;;;22.40;99.90;;;;;;5071402;28;20260;-65
2021/05/29 07:13:35;;;;;;;7.93;7.30;;;22.40;99.90;;;;;;5063297;28;20758;-65
2021/05/29 07:16:01;;;;;;;8.38;7.65;;;22.70;99.90;;;;;;5051884;28;20258;-65
2021/05/29 07:18:31;;;;;;;11.57;8.95;;;22.80;99.90;;;;;;5061403;28;20691;-65
2021/05/29 07:20:57;;;;;;;10.40;9.52;;;22.70;99.90;;;;;;5070963;28;20597;-66
2021/05/29 07:23:23;;;;;;;8.23;7.65;;;22.60;99.90;;;;;;5070859;28;20331;-66
2021/05/29 07:25:49;;;;;;;8.43;7.72;;;22.80;99.90;;;;;;5071598;28;20249;-66
2021/05/29 07:28:16;;;;;;;9.40;7.57;;;23.00;99.90;;;;;;5063804;28;20229;-66
2021/05/29 07:30:42;;;;;;;8.80;8.23;;;23.10;99.90;;;;;;5051199;28;20515;-66
2021/05/29 07:33:08;;;;;;;8.00;7.35;;;23.40;99.90;;;;;;5057534;28;20299;-67
2021/05/29 07:35:34;;;;;;;9.20;8.45;;;23.40;99.90;;;;;;5071451;28;20650;-66
2021/05/29 07:38:00;;;;;;;8.63;8.02;;;23.30;99.90;;;;;;5066638;28;20198;-66
2021/05/29 07:40:26;;;;;;;8.50;7.80;;;23.10;99.90;;;;;;5050298;28;20263;-66
2021/05/29 07:42:52;;;;;;;8.30;7.47;;;23.30;99.90;;;;;;5054169;28;20351;-66
2021/05/29 07:45:18;;;;;;;10.35;9.45;;;23.30;99.90;;;;;;5069141;28;20667;-66
2021/05/29 07:47:43;;;;;;;9.73;9.02;;;23.40;99.90;;;;;;5069849;28;20264;-66
2021/05/29 07:50:10;;;;;;;8.32;7.63;;;23.60;99.90;;;;;;5051123;28;20637;-65
2021/05/29 07:52:36;;;;;;;10.13;9.40;;;23.50;99.90;;;;;;5052830;28;20206;-66
2021/05/29 07:55:01;;;;;;;10.75;8.43;;;23.40;99.90;;;;;;5071368;28;20181;-66
2021/05/29 07:57:27;;;;;;;9.02;8.35;;;23.50;99.90;;;;;;5056167;28;20221;-66
2021/05/29 07:59:53;;;;;;;8.48;7.53;;;23.80;99.90;;;;;;5050941;28;20181;-65
2021/05/29 08:02:19;;;;;;;9.68;8.82;;;24.00;99.90;;;;;;5052241;28;20692;-65
2021/05/29 08:04:45;;;;;;;8.75;7.97;;;23.80;99.90;;;;;;5050916;28;20312;-66
2021/05/29 08:07:10;;;;;;;8.30;7.70;;;23.50;99.90;;;;;;5062241;28;20205;-65
2021/05/29 08:09:36;;;;;;;9.18;8.35;;;23.70;99.90;;;;;;5071136;28;20186;-66
2021/05/29 08:12:02;;;;;;;7.70;7.10;;;23.70;99.90;;;;;;5061014;28;20178;-66
2021/05/29 08:14:27;;;;;;;8.13;7.53;;;23.70;99.90;;;;;;5051042;28;20745;-66
2021/05/29 08:16:53;;;;;;;8.00;7.47;;;23.60;99.90;;;;;;5058786;28;20196;-65
2021/05/29 08:19:19;;;;;;;10.85;10.07;;;23.40;99.90;;;;;;5070927;28;20529;-66
2021/05/29 08:21:46;;;;;;;9.13;8.43;;;23.30;99.90;;;;;;5064176;28;20167;-66
2021/05/29 08:24:13;;;;;;;7.80;7.20;;;23.20;99.90;;;;;;5050921;28;20687;-66
2021/05/29 08:26:39;;;;;;;8.43;7.72;;;23.20;99.90;;;;;;5057847;28;20182;-66
2021/05/29 08:29:06;;;;;;;7.82;7.30;;;23.30;99.90;;;;;;5073521;28;20200;-65
2021/05/29 08:31:33;;;;;;;7.72;7.05;;;23.60;99.90;;;;;;5071218;28;20191;-66
2021/05/29 08:33:59;;;;;;;6.53;6.03;;;24.00;99.90;;;;;;5054530;28;20202;-65
2021/05/29 08:36:25;;;;;;;7.45;6.72;;;24.60;99.90;;;;;;5056630;28;20166;-66
2021/05/29 08:38:51;;;;;;;7.38;6.80;;;24.70;99.90;;;;;;5074708;28;20171;-65
2021/05/29 08:41:17;;;;;;;8.45;7.95;;;24.70;99.90;;;;;;5073831;28;20185;-65
2021/05/29 08:43:44;;;;;;;6.15;5.53;;;24.70;99.90;;;;;;5055159;28;20191;-66
2021/05/29 08:46:10;;;;;;;6.97;6.47;;;25.00;99.90;;;;;;5053913;28;20170;-65
2021/05/29 08:48:40;;;;;;;6.25;5.85;;;25.10;99.90;;;;;;5073246;28;20190;-66
2021/05/29 08:51:17;;;;;;;9.25;8.60;;;25.20;99.90;;;;;;5074143;28;20720;-66
2021/05/29 08:53:48;;;;;;;6.93;6.40;;;25.10;99.90;;;;;;5054878;28;20210;-66
2021/05/29 08:56:16;;;;;;;7.30;6.68;;;25.40;99.90;;;;;;5054464;28;20159;-65
2021/05/29 08:58:42;;;;;;;8.23;7.28;;;25.20;99.90;;;;;;5072698;28;20177;-66
2021/05/29 09:01:08;;;;;;;8.43;7.00;;;25.50;99.90;;;;;;5073946;28;20163;-66
2021/05/29 09:03:50;;;;;;;9.45;8.55;;;25.60;99.90;;;;;;5057047;28;20674;-65
2021/05/29 09:06:36;;;;;;;10.55;9.50;;;25.40;99.90;;;;;;5054308;28;20179;-65
2021/05/29 09:09:11;;;;;;;7.13;6.55;;;25.50;99.90;;;;;;5054363;28;20171;-66
2021/05/29 09:11:58;;;;;;;8.10;7.55;;;25.60;99.90;;;;;;5053826;28;20171;-67
2021/05/29 09:14:24;;;;;;;10.02;9.20;;;25.60;99.90;;;;;;5074131;28;20233;-66
2021/05/29 09:17:08;;;;;;;10.23;9.57;;;25.50;99.90;;;;;;5072789;28;20182;-66
2021/05/29 09:19:55;;;;;;;7.25;6.65;;;25.30;99.90;;;;;;5054091;28;20167;-66
2021/05/29 09:22:26;;;;;;;7.65;6.95;;;24.80;99.90;;;;;;5058162;28;20182;-65
2021/05/29 09:25:04;;;;;;;6.95;6.20;;;24.80;99.90;;;;;;5074397;28;20182;-66
2021/05/29 09:27:32;;;;;;;6.88;6.15;;;25.00;99.90;;;;;;5068537;28;20175;-66
2021/05/29 09:29:57;;;;;;;8.02;7.43;;;25.40;99.90;;;;;;5053670;28;20220;-65
2021/05/29 09:32:23;;;;;;;7.00;6.50;;;25.70;99.90;;;;;;5056032;28;20179;-66
2021/05/29 09:34:53;;;;;;;7.63;7.13;;;25.80;99.90;;;;;;5073502;28;20698;-65
2021/05/29 09:37:26;;;;;;;7.05;6.55;;;26.30;99.90;;;;;;5069437;28;20581;-66
2021/05/29 09:39:54;;;;;;;6.82;6.40;;;26.10;99.90;;;;;;5053351;28;20166;-66
2021/05/29 09:42:26;;;;;;;6.72;6.13;;;25.40;99.90;;;;;;5055564;28;20174;-66
2021/05/29 09:44:51;;;;;;;6.82;6.35;;;25.10;99.90;;;;;;5072659;28;20207;-65
2021/05/29 09:47:18;;;;;;;7.30;6.82;;;24.60;99.90;;;;;;5071802;28;20640;-64
2021/05/29 09:49:55;;;;;;;7.85;7.35;;;24.80;99.90;;;;;;5051832;28;20179;-66
2021/05/29 09:52:31;;;;;;;7.57;6.97;;;25.10;99.90;;;;;;5061738;28;20185;-66
2021/05/29 09:55:00;;;;;;;6.13;5.55;;;25.40;99.90;;;;;;5073400;28;20201;-65
2021/05/29 09:57:26;;;;;;;6.75;6.25;;;25.60;99.90;;;;;;5068122;28;20170;-65
2021/05/29 10:00:06;;;;;;;7.88;7.38;;;25.40;99.90;;;;;;5073165;28;20174;-66
2021/05/29 10:02:31;;;;;;;6.93;6.32;;;25.50;99.90;;;;;;5066178;28;20221;-65
2021/05/29 10:04:57;;;;;;;6.57;6.07;;;25.50;99.90;;;;;;5073159;28;20201;-65
2021/05/29 10:07:43;;;;;;;8.43;7.75;;;25.50;99.90;;;;;;5065109;28;20258;-66
2021/05/29 10:10:09;;;;;;;8.43;7.72;;;25.70;99.90;;;;;;5052687;28;20194;-66
2021/05/29 10:12:35;;;;;;;7.78;6.80;;;25.90;99.90;;;;;;5061414;28;20675;-65
2021/05/29 10:15:00;;;;;;;8.80;8.15;;;26.50;99.90;;;;;;5073123;28;20186;-67
2021/05/29 10:17:28;;;;;;;9.15;8.45;;;27.30;99.90;;;;;;5065725;28;20171;-65
2021/05/29 10:19:55;;;;;;;5.95;5.53;;;27.60;99.90;;;;;;5052593;28;20171;-66
2021/05/29 10:22:20;;;;;;;6.78;6.28;;;27.20;99.90;;;;;;5058165;28;20188;-66
2021/05/29 10:24:47;;;;;;;7.00;6.50;;;27.00;99.90;;;;;;5064038;28;20182;-65
2021/05/29 10:27:19;;;;;;;12.10;11.27;;;27.20;99.90;;;;;;5056600;28;20197;-65
2021/05/29 10:29:45;;;;;;;12.55;11.82;;;27.40;99.90;;;;;;5072588;28;20176;-66
2021/05/29 10:32:13;;;;;;;9.77;9.23;;;27.30;99.90;;;;;;5069056;28;20698;-66
2021/05/29 10:35:09;;;;;;;8.57;6.55;;;26.90;99.90;;;;;;5052472;28;20216;-66
2021/05/29 10:37:41;;;;;;;8.98;8.23;;;26.50;99.90;;;;;;5049081;28;20191;-65
2021/05/29 10:40:27;;;;;;;7.38;6.88;;;26.10;99.90;;;;;;5051080;28;20202;-65
2021/05/29 10:43:15;;;;;;;7.40;6.90;;;26.30;99.90;;;;;;5060331;28;20284;-66
2021/05/29 10:45:53;;;;;;;9.50;8.98;;;27.20;99.90;;;;;;5071364;28;20166;-66
2021/05/29 10:48:26;;;;;;;9.30;8.57;;;27.60;99.90;;;;;;5060908;28;20541;-66
2021/05/29 10:50:53;;;;;;;8.07;7.35;;;27.60;99.90;;;;;;5052001;28;20616;-66
2021/05/29 10:53:44;;;;;;;7.85;6.80;;;27.80;99.90;;;;;;5061142;28;20206;-66
2021/05/29 10:56:19;;;;;;;7.70;7.20;;;27.00;99.70;;;;;;5072315;28;20224;-66
2021/05/29 10:58:59;;;;;;;7.88;7.47;;;26.00;99.90;;;;;;5058338;28;20174;-66
2021/05/29 11:01:53;;;;;;;8.38;7.55;;;25.90;99.90;;;;;;5064222;28;20166;-67
2021/05/29 11:04:19;;;;;;;7.90;7.15;;;26.20;99.90;;;;;;5049602;28;20206;-66
2021/05/29 11:06:51;;;;;;;8.88;8.18;;;25.50;99.90;;;;;;5056746;28;20171;-66
2021/05/29 11:09:29;;;;;;;7.30;6.68;;;25.10;99.90;;;;;;5054675;28;20295;-66
2021/05/29 11:11:59;;;;;;;6.78;6.28;;;24.60;99.90;;;;;;5071566;28;20175;-67
2021/05/29 11:14:30;;;;;;;8.80;8.10;;;24.40;99.90;;;;;;5067930;28;20257;-65
2021/05/29 11:16:57;;;;;;;7.85;7.15;;;24.50;99.90;;;;;;5051762;28;20167;-65
2021/05/29 11:19:33;;;;;;;7.95;7.25;;;24.80;99.90;;;;;;5054042;28;20547;-66
2021/05/29 11:22:16;;;;;;;7.65;7.15;;;25.10;99.90;;;;;;5071566;28;20205;-65
2021/05/29 11:24:49;;;;;;;7.95;7.25;;;25.00;99.90;;;;;;5066753;28;20187;-66
2021/05/29 11:27:17;;;;;;;8.05;7.55;;;24.80;99.90;;;;;;5051685;28;20202;-66
2021/05/29 11:29:46;;;;;;;8.82;8.07;;;25.40;99.90;;;;;;5055416;28;20647;-66
2021/05/29 11:32:11;;;;;;;9.18;7.60;;;25.40;99.90;;;;;;5071548;28;20174;-66
2021/05/29 11:34:43;;;;;;;8.48;7.88;;;24.70;99.90;;;;;;5068298;28;20479;-65
2021/05/29 11:37:15;;;;;;;8.73;8.10;;;24.20;99.90;;;;;;5051607;28;20178;-67
2021/05/29 11:39:52;;;;;;;10.13;9.27;;;24.60;99.90;;;;;;5053986;28;20182;-65
2021/05/29 11:42:18;;;;;;;9.07;8.27;;;25.10;99.90;;;;;;5071602;28;20532;-66
2021/05/29 11:44:44;;;;;;;9.73;8.93;;;25.50;99.90;;;;;;5067447;28;20178;-66
2021/05/29 11:47:14;;;;;;;8.73;7.93;;;25.80;99.90;;;;;;5051280;28;20268;-66
2021/05/29 11:49:39;;;;;;;8.93;8.23;;;25.10;99.90;;;;;;5052249;28;20635;-66
2021/05/29 11:52:05;;;;;;;10.25;9.45;;;24.60;99.90;;;;;;5051189;28;20183;-65
2021/05/29 11:54:35;;;;;;;8.80;7.88;;;24.50;99.90;;;;;;5053066;28;20205;-65
2021/05/29 11:57:02;;;;;;;9.35;8.55;;;24.50;99.90;;;;;;5071381;28;20253;-66
2021/05/29 11:59:27;;;;;;;9.93;9.07;;;24.90;99.90;;;;;;5070283;28;20170;-66
2021/05/29 12:01:55;;;;;;;8.57;7.95;;;24.90;99.90;;;;;;5050090;28;20689;-67
2021/05/29 12:04:23;;;;;;;8.75;8.05;;;24.60;99.90;;;;;;5051282;28;20248;-66
2021/05/29 12:06:56;;;;;;;9.23;8.50;;;24.10;99.90;;;;;;5070403;28;20182;-66
2021/05/29 12:09:28;;;;;;;11.02;10.32;;;23.80;99.90;;;;;;5071448;28;20249;-65
2021/05/29 12:12:02;;;;;;;10.23;9.23;;;23.70;99.90;;;;;;5069372;28;20208;-65
2021/05/29 12:14:33;;;;;;;8.63;7.95;;;24.10;99.90;;;;;;5071151;28;20702;-65
2021/05/29 12:17:04;;;;;;;8.50;7.88;;;25.00;99.90;;;;;;5051309;28;20543;-66
2021/05/29 12:19:30;;;;;;;8.73;8.00;;;25.70;99.90;;;;;;5051045;28;20166;-66
2021/05/29 12:21:57;;;;;;;8.80;8.07;;;26.10;99.60;;;;;;5069765;28;20242;-66
2021/05/29 12:24:26;;;;;;;8.95;8.10;;;26.40;99.90;;;;;;5070913;28;20218;-66
2021/05/29 12:26:53;;;;;;;8.85;7.82;;;27.00;98.90;;;;;;5052907;28;20182;-66
2021/05/29 12:29:23;;;;;;;9.98;9.27;;;27.80;99.40;;;;;;5050877;28;20179;-66
2021/05/29 12:31:58;;;;;;;10.70;9.93;;;28.10;99.80;;;;;;5067354;28;20189;-65
2021/05/29 12:34:26;;;;;;;9.90;9.10;;;27.30;97.40;;;;;;5070943;28;20736;-65
2021/05/29 12:37:01;;;;;;;9.38;8.68;;;26.40;99.50;;;;;;5054227;28;20687;-65
2021/05/29 12:39:48;;;;;;;10.43;9.60;;;25.70;99.70;;;;;;5050887;28;20174;-66
2021/05/29 12:42:29;;;;;;;10.00;9.10;;;24.60;99.90;;;;;;5069799;28;20518;-65
2021/05/29 12:44:57;;;;;;;12.60;11.43;;;24.60;99.90;;;;;;5069673;28;20710;-65
2021/05/29 12:47:31;;;;;;;10.68;9.70;;;24.70;99.90;;;;;;5050956;28;20190;-64
2021/05/29 12:49:58;;;;;;;10.27;9.38;;;25.00;99.90;;;;;;5050648;28;20198;-65
2021/05/29 12:52:33;;;;;;;10.23;9.43;;;25.50;99.90;;;;;;5070324;28;20185;-65
2021/05/29 12:55:04;;;;;;;10.48;9.68;;;26.20;99.90;;;;;;5070697;28;20205;-66